createdAt,value
2022-11-04T00:01:46.197Z,6.40
2022-11-04T00:04:15.362Z,6.40
2022-11-04T00:06:42.717Z,6.50
2022-11-04T00:09:15.687Z,6.50
2022-11-04T00:12:01.414Z,6.50
2022-11-04T00:14:30.674Z,6.50
2022-11-04T00:17:17.468Z,6.50
2022-11-04T00:20:03.772Z,6.50
2022-11-04T00:22:49.338Z,6.50
2022-11-04T00:25:35.108Z,6.40
2022-11-04T00:28:35.456Z,6.40
2022-11-04T00:31:26.321Z,6.40
2022-11-04T00:33:55.767Z,6.30
2022-11-04T00:36:24.509Z,6.30
2022-11-04T00:39:17.138Z,6.30
2022-11-04T00:41:44.401Z,6.20
2022-11-04T00:44:11.833Z,6.20
2022-11-04T00:46:39.529Z,6.20
2022-11-04T00:49:06.682Z,6.10
2022-11-04T00:51:33.806Z,6.10
2022-11-04T00:54:01.183Z,6.10
2022-11-04T00:56:28.562Z,6.00
2022-11-04T00:58:55.657Z,6.00
2022-11-04T01:01:23.036Z,6.00
2022-11-04T01:03:51.905Z,6.10
2022-11-04T01:06:20.574Z,6.10
2022-11-04T01:08:48.405Z,6.20
2022-11-04T01:11:16.999Z,6.20
2022-11-04T01:13:44.146Z,6.30
2022-11-04T01:16:13.291Z,6.30
2022-11-04T01:18:41.212Z,6.20
2022-11-04T01:21:11.404Z,6.20
2022-11-04T01:23:38.961Z,6.20
2022-11-04T01:26:07.646Z,6.20
2022-11-04T01:28:34.777Z,6.20
2022-11-04T01:31:13.550Z,6.10
2022-11-04T01:33:41.793Z,6.20
2022-11-04T01:36:13.254Z,6.20
2022-11-04T01:38:40.843Z,6.20
2022-11-04T01:41:09.958Z,6.30
2022-11-04T01:43:50.807Z,6.30
2022-11-04T01:46:39.048Z,6.30
2022-11-04T01:49:43.704Z,6.40
2022-11-04T01:52:17.294Z,6.40
2022-11-04T01:54:48.019Z,6.40
2022-11-04T01:57:19.506Z,6.30
2022-11-04T01:59:47.229Z,6.30
2022-11-04T02:02:14.723Z,6.20
2022-11-04T02:04:43.679Z,6.20
2022-11-04T02:07:12.180Z,6.20
2022-11-04T02:09:40.688Z,6.10
2022-11-04T02:12:26.738Z,6.00
2022-11-04T02:14:55.699Z,6.00
2022-11-04T02:17:41.515Z,5.90
2022-11-04T02:20:30.395Z,5.80
2022-11-04T02:23:23.979Z,5.80
2022-11-04T02:26:17.106Z,5.80
2022-11-04T02:29:08.583Z,5.80
2022-11-04T02:32:01.175Z,5.80
2022-11-04T02:34:41.280Z,5.80
2022-11-04T02:37:14.313Z,5.80
2022-11-04T02:40:10.992Z,5.80
2022-11-04T02:42:45.475Z,5.80
2022-11-04T02:45:18.418Z,5.80
2022-11-04T02:47:51.900Z,5.80
2022-11-04T02:50:34.721Z,5.80
2022-11-04T02:53:11.083Z,5.80
2022-11-04T02:55:49.619Z,5.70
2022-11-04T02:58:25.969Z,5.70
2022-11-04T03:00:56.036Z,5.70
2022-11-04T03:03:28.169Z,5.70
2022-11-04T03:05:58.477Z,5.70
2022-11-04T03:08:30.856Z,5.60
2022-11-04T03:11:12.634Z,5.60
2022-11-04T03:14:08.286Z,5.50
2022-11-04T03:16:48.401Z,5.50
2022-11-04T03:19:53.524Z,5.50
2022-11-04T03:22:24.149Z,5.50
2022-11-04T03:24:52.673Z,5.50
2022-11-04T03:27:49.842Z,5.50
2022-11-04T03:30:22.439Z,5.50
2022-11-04T03:33:09.736Z,5.50
2022-11-04T03:35:37.049Z,5.50
2022-11-04T03:38:04.483Z,5.50
2022-11-04T03:40:31.749Z,5.60
2022-11-04T03:43:14.463Z,5.60
2022-11-04T03:45:42.440Z,5.50
2022-11-04T03:48:10.170Z,5.60
2022-11-04T03:50:47.762Z,5.50
2022-11-04T03:53:21.759Z,5.60
2022-11-04T03:56:04.012Z,5.60
2022-11-04T03:58:51.848Z,5.60
2022-11-04T04:01:21.752Z,5.60
2022-11-04T04:04:02.974Z,5.70
2022-11-04T04:06:40.341Z,5.70
2022-11-04T04:09:50.082Z,5.70
2022-11-04T04:12:17.208Z,5.80
2022-11-04T04:14:53.035Z,5.80
2022-11-04T04:17:50.695Z,5.80
2022-11-04T04:20:24.575Z,5.80
2022-11-04T04:23:25.597Z,5.80
2022-11-04T04:26:13.378Z,5.80
2022-11-04T04:28:42.238Z,5.90
2022-11-04T04:31:11.750Z,5.90
2022-11-04T04:33:40.270Z,5.90
2022-11-04T04:36:10.254Z,5.90
2022-11-04T04:39:01.492Z,6.00
2022-11-04T04:41:51.014Z,5.90
2022-11-04T04:44:46.197Z,6.00
2022-11-04T04:47:21.269Z,5.90
2022-11-04T04:49:59.696Z,6.00
2022-11-04T04:52:31.451Z,6.00
2022-11-04T04:54:58.739Z,6.00
2022-11-04T04:57:26.005Z,6.00
2022-11-04T04:59:53.267Z,6.00
2022-11-04T05:02:20.738Z,6.00
2022-11-04T05:04:48.099Z,6.00
2022-11-04T05:07:15.632Z,6.00
2022-11-04T05:09:42.984Z,6.00
2022-11-04T05:12:10.473Z,6.00
2022-11-04T05:14:37.572Z,6.00
2022-11-04T05:17:05.074Z,5.90
2022-11-04T05:19:32.167Z,5.90
2022-11-04T05:21:59.776Z,5.90
2022-11-04T05:24:27.110Z,5.80
2022-11-04T05:26:54.294Z,5.80
2022-11-04T05:29:21.413Z,5.70
2022-11-04T05:31:48.601Z,5.70
2022-11-04T05:34:16.123Z,5.60
2022-11-04T05:36:43.407Z,5.60
2022-11-04T05:39:14.108Z,5.60
2022-11-04T05:41:41.311Z,5.50
2022-11-04T05:44:10.798Z,5.50
2022-11-04T05:46:38.026Z,5.50
2022-11-04T05:49:05.657Z,5.40
2022-11-04T05:51:32.888Z,5.40
2022-11-04T05:54:00.903Z,5.40
2022-11-04T05:56:28.209Z,5.40
2022-11-04T05:58:55.466Z,5.40
2022-11-04T06:01:38.018Z,5.30
2022-11-04T06:04:06.596Z,5.40
2022-11-04T06:06:36.392Z,5.40
2022-11-04T06:09:03.968Z,5.40
2022-11-04T06:11:31.956Z,5.40
2022-11-04T06:13:59.408Z,5.40
2022-11-04T06:16:27.391Z,5.50
2022-11-04T06:18:54.983Z,5.50
2022-11-04T06:21:25.399Z,5.50
2022-11-04T06:23:54.613Z,5.60
2022-11-04T06:26:26.831Z,5.60
2022-11-04T06:28:55.517Z,5.60
2022-11-04T06:31:22.852Z,5.60
2022-11-04T06:33:50.122Z,5.60
2022-11-04T06:36:17.887Z,5.70
2022-11-04T06:38:45.283Z,5.70
2022-11-04T06:41:15.791Z,5.70
2022-11-04T06:43:43.086Z,5.70
2022-11-04T06:46:39.460Z,5.70
2022-11-04T06:49:10.299Z,5.80
2022-11-04T06:51:37.945Z,5.80
2022-11-04T06:54:05.264Z,5.80
2022-11-04T06:56:32.326Z,5.80
2022-11-04T06:58:59.697Z,5.80
2022-11-04T07:01:29.247Z,5.80
2022-11-04T07:03:59.515Z,5.80
2022-11-04T07:06:29.267Z,5.80
2022-11-04T07:08:58.805Z,5.80
2022-11-04T07:11:27.456Z,5.80
2022-11-04T07:13:55.675Z,5.80
2022-11-04T07:16:22.859Z,5.80
2022-11-04T07:18:51.870Z,5.90
2022-11-04T07:21:18.993Z,5.90
2022-11-04T07:23:46.204Z,5.90
2022-11-04T07:26:13.744Z,5.90
2022-11-04T07:28:40.913Z,5.90
2022-11-04T07:31:10.948Z,5.90
2022-11-04T07:33:38.256Z,5.90
2022-11-04T07:36:07.656Z,5.90
2022-11-04T07:38:34.806Z,5.90
2022-11-04T07:41:02.685Z,5.90
2022-11-04T07:43:32.043Z,5.90
2022-11-04T07:46:05.030Z,5.90
2022-11-04T07:48:32.887Z,5.90
2022-11-04T07:51:01.528Z,5.90
2022-11-04T07:53:30.647Z,5.90
2022-11-04T07:55:58.512Z,5.80
2022-11-04T07:58:26.080Z,5.80
2022-11-04T08:00:59.876Z,5.80
2022-11-04T08:03:27.957Z,5.80
2022-11-04T08:05:56.802Z,5.80
2022-11-04T08:08:24.467Z,5.80
2022-11-04T08:11:17.321Z,5.90
2022-11-04T08:13:46.843Z,5.90
2022-11-04T08:16:17.458Z,5.90
2022-11-04T08:18:45.564Z,5.90
2022-11-04T08:21:13.541Z,6.00
2022-11-04T08:23:40.879Z,6.00
2022-11-04T08:26:13.207Z,6.00
2022-11-04T08:28:40.984Z,6.00
2022-11-04T08:31:11.764Z,6.00
2022-11-04T08:33:39.733Z,5.90
2022-11-04T08:36:18.877Z,5.90
2022-11-04T08:38:46.958Z,5.90
2022-11-04T08:41:16.704Z,5.90
2022-11-04T08:43:44.152Z,5.90
2022-11-04T08:46:11.666Z,5.90
2022-11-04T08:48:40.478Z,5.90
2022-11-04T08:51:13.600Z,5.90
2022-11-04T08:53:40.855Z,6.00
2022-11-04T08:56:20.363Z,6.00
2022-11-04T08:58:48.571Z,6.10
2022-11-04T09:01:17.537Z,6.10
2022-11-04T09:03:45.092Z,6.20
2022-11-04T09:06:16.439Z,6.20
2022-11-04T09:08:43.723Z,6.20
2022-11-04T09:11:13.275Z,6.30
2022-11-04T09:13:40.984Z,6.30
2022-11-04T09:16:10.207Z,6.30
2022-11-04T09:18:37.613Z,6.40
2022-11-04T09:21:06.553Z,6.40
2022-11-04T09:23:33.869Z,6.50
2022-11-04T09:26:15.865Z,6.50
2022-11-04T09:28:45.518Z,6.60
2022-11-04T09:31:16.442Z,6.60
2022-11-04T09:33:43.982Z,6.70
2022-11-04T09:36:12.457Z,6.80
2022-11-04T09:38:41.359Z,6.80
2022-11-04T09:41:37.708Z,6.90
2022-11-04T09:44:47.989Z,7.00
2022-11-04T09:47:22.577Z,7.00
2022-11-04T09:49:55.277Z,7.10
2022-11-04T09:52:26.551Z,7.10
2022-11-04T09:54:59.774Z,7.20
2022-11-04T09:57:27.064Z,7.20
2022-11-04T09:59:54.777Z,7.20
2022-11-04T10:02:44.187Z,7.20
2022-11-04T10:05:23.593Z,7.30
2022-11-04T10:08:29.934Z,7.40
2022-11-04T10:11:22.292Z,7.40
2022-11-04T10:13:55.483Z,7.50
2022-11-04T10:17:01.997Z,7.60
2022-11-04T10:19:29.174Z,7.70
2022-11-04T10:22:05.026Z,7.80
2022-11-04T10:25:14.322Z,7.90
2022-11-04T10:27:52.860Z,7.90
2022-11-04T10:30:38.323Z,7.90
2022-11-04T10:34:20.576Z,8.00
2022-11-04T10:37:20.658Z,8.10
2022-11-04T10:40:11.908Z,8.10
2022-11-04T10:43:14.296Z,8.20
2022-11-04T10:45:56.150Z,8.30
2022-11-04T10:48:38.505Z,8.30
2022-11-04T10:51:07.054Z,8.40
2022-11-04T10:53:37.948Z,8.50
2022-11-04T10:56:30.355Z,8.60
2022-11-04T10:59:00.945Z,8.70
2022-11-04T11:01:35.780Z,8.70
2022-11-04T11:04:07.431Z,8.80
2022-11-04T11:06:36.592Z,8.90
2022-11-04T11:09:14.559Z,8.90
2022-11-04T11:11:52.275Z,8.90
2022-11-04T11:14:32.048Z,9.00
2022-11-04T11:17:21.322Z,9.10
2022-11-04T11:20:08.620Z,9.20
2022-11-04T11:22:41.958Z,9.30
2022-11-04T11:25:28.791Z,9.40
2022-11-04T11:28:02.081Z,9.60
2022-11-04T11:30:32.401Z,9.60
2022-11-04T11:33:08.511Z,9.70
2022-11-04T11:35:42.420Z,9.80
2022-11-04T11:38:28.074Z,9.80
2022-11-04T11:41:24.527Z,9.90
2022-11-04T11:43:54.187Z,10.00
2022-11-04T11:46:23.907Z,10.00
2022-11-04T11:48:54.375Z,10.00
2022-11-04T11:51:32.795Z,10.10
2022-11-04T11:54:17.914Z,10.10
2022-11-04T11:57:13.245Z,10.20
2022-11-04T12:00:36.997Z,10.20
2022-11-04T12:03:24.148Z,10.30
2022-11-04T12:06:16.859Z,10.30
2022-11-04T12:12:02.599Z,10.40
2022-11-04T12:14:59.769Z,10.40
2022-11-04T12:17:33.107Z,10.50
2022-11-04T12:20:11.708Z,10.50
2022-11-04T12:22:53.570Z,10.60
2022-11-04T12:25:33.504Z,10.60
2022-11-04T12:28:18.917Z,10.60
2022-11-04T12:31:11.218Z,10.60
2022-11-04T12:34:13.570Z,10.70
2022-11-04T12:37:25.922Z,10.70
2022-11-04T12:40:17.289Z,10.70
2022-11-04T12:43:05.958Z,10.70
2022-11-04T12:46:00.075Z,10.70
2022-11-04T12:48:33.282Z,10.70
2022-11-04T12:51:06.929Z,10.70
2022-11-04T12:54:07.983Z,10.80
2022-11-04T12:56:50.654Z,10.70
2022-11-04T12:59:56.609Z,10.80
2022-11-04T13:02:41.570Z,10.80
2022-11-04T13:05:21.187Z,10.80
2022-11-04T13:07:57.852Z,10.80
2022-11-04T13:14:30.088Z,10.80
2022-11-04T13:17:08.090Z,10.80
2022-11-04T13:26:02.884Z,10.80
2022-11-04T13:28:32.045Z,10.80
2022-11-04T13:31:19.767Z,10.80
2022-11-04T13:34:00.485Z,10.80
2022-11-04T13:36:38.994Z,10.80
2022-11-04T13:39:25.768Z,10.80
2022-11-04T13:42:15.317Z,10.90
2022-11-04T13:44:47.288Z,10.80
2022-11-04T13:47:51.073Z,10.90
2022-11-04T13:50:55.627Z,10.90
2022-11-04T13:53:51.446Z,10.90
2022-11-04T13:56:35.543Z,10.90
2022-11-04T13:59:29.062Z,10.90
2022-11-04T14:02:12.529Z,10.90
2022-11-04T14:04:44.673Z,10.90
2022-11-04T14:07:18.099Z,10.90
2022-11-04T14:09:45.226Z,10.90
2022-11-04T14:12:26.084Z,10.90
2022-11-04T14:14:55.742Z,10.90
2022-11-04T14:17:35.321Z,10.90
2022-11-04T14:20:06.311Z,10.90
2022-11-04T14:22:46.413Z,10.90
2022-11-04T14:25:19.870Z,10.90
2022-11-04T14:27:52.704Z,10.80
2022-11-04T14:30:54.284Z,10.90
2022-11-04T14:33:53.803Z,10.90
2022-11-04T14:36:22.379Z,10.80
2022-11-04T14:38:58.718Z,10.90
2022-11-04T14:41:28.792Z,10.90
2022-11-04T14:44:08.306Z,10.90
2022-11-04T14:46:52.596Z,10.80
2022-11-04T14:49:47.655Z,10.80
2022-11-04T14:52:23.934Z,10.80
2022-11-04T14:55:08.052Z,10.80
2022-11-04T14:57:44.203Z,10.80
2022-11-04T15:00:38.733Z,10.70
2022-11-04T15:04:08.851Z,10.70
2022-11-04T15:06:11.435Z,10.70
2022-11-04T15:08:45.415Z,10.60
2022-11-04T15:11:40.830Z,10.60
2022-11-04T15:14:28.782Z,10.60
2022-11-04T15:16:59.757Z,10.50
2022-11-04T15:19:32.952Z,10.50
2022-11-04T15:22:05.476Z,10.50
2022-11-04T15:24:34.398Z,10.50
2022-11-04T15:27:06.136Z,10.50
2022-11-04T15:29:33.639Z,10.60
2022-11-04T15:32:32.531Z,10.50
2022-11-04T15:35:06.010Z,10.60
2022-11-04T15:37:35.686Z,10.60
2022-11-04T15:40:03.672Z,10.50
2022-11-04T15:42:40.066Z,10.50
2022-11-04T15:45:22.998Z,10.40
2022-11-04T15:48:11.236Z,10.40
2022-11-04T15:50:39.226Z,10.30
2022-11-04T15:53:10.469Z,10.20
2022-11-04T16:03:02.267Z,10.10
2022-11-04T16:05:36.056Z,10.10
2022-11-04T16:08:23.361Z,10.00
2022-11-04T16:10:51.428Z,10.00
2022-11-04T16:13:22.791Z,9.90
2022-11-04T16:16:09.453Z,9.90
2022-11-04T16:18:49.073Z,9.90
2022-11-04T16:21:25.729Z,9.90
2022-11-04T16:24:19.076Z,9.80
2022-11-04T16:29:33.184Z,9.70
2022-11-04T16:32:29.227Z,9.70
2022-11-04T16:38:02.145Z,9.60
2022-11-04T16:40:31.549Z,9.60
2022-11-04T16:42:59.128Z,9.60
2022-11-04T16:45:27.981Z,9.60
2022-11-04T16:47:55.697Z,9.60
2022-11-04T16:50:24.643Z,9.50
2022-11-04T16:52:55.828Z,9.50
2022-11-04T16:58:07.100Z,9.40
2022-11-04T17:00:36.855Z,9.40
2022-11-04T17:03:23.902Z,9.40
2022-11-04T17:05:57.447Z,9.30
2022-11-04T17:08:26.281Z,9.30
2022-11-04T17:10:54.491Z,9.20
2022-11-04T17:13:21.683Z,9.20
2022-11-04T17:15:48.993Z,9.20
2022-11-04T17:18:18.234Z,9.20
2022-11-04T17:20:50.056Z,9.20
2022-11-04T17:23:17.975Z,9.20
2022-11-04T17:25:46.226Z,9.10
2022-11-04T17:28:16.624Z,9.10
2022-11-04T17:30:47.765Z,9.10
2022-11-04T17:33:17.531Z,9.10
2022-11-04T17:35:48.667Z,9.10
2022-11-04T17:38:17.653Z,9.10
2022-11-04T17:41:17.871Z,9.10
2022-11-04T17:44:01.087Z,9.10
2022-11-04T17:46:42.370Z,9.10
2022-11-04T17:49:14.950Z,9.00
2022-11-04T17:51:48.955Z,9.00
2022-11-04T17:54:18.478Z,9.00
2022-11-04T17:56:46.842Z,8.90
2022-11-04T17:59:16.731Z,8.90
2022-11-04T18:01:46.213Z,8.90
2022-11-04T18:04:20.371Z,8.90
2022-11-04T18:06:49.593Z,8.90
2022-11-04T18:09:18.674Z,8.80
2022-11-04T18:12:06.178Z,8.80
2022-11-04T18:14:33.939Z,8.80
2022-11-04T18:17:01.600Z,8.70
2022-11-04T18:19:29.707Z,8.70
2022-11-04T18:21:57.240Z,8.70
2022-11-04T18:24:25.119Z,8.70
2022-11-04T18:26:53.050Z,8.60
2022-11-04T18:29:21.497Z,8.60
2022-11-04T18:31:50.008Z,8.60
2022-11-04T18:34:19.974Z,8.60
2022-11-04T18:36:48.997Z,8.60
2022-11-04T18:39:18.799Z,8.60
2022-11-04T18:41:46.863Z,8.50
2022-11-04T18:44:17.313Z,8.50
2022-11-04T18:46:45.419Z,8.50
2022-11-04T18:49:14.400Z,8.50
2022-11-04T18:51:43.153Z,8.50
2022-11-04T18:54:12.246Z,8.50
2022-11-04T18:56:39.813Z,8.50
2022-11-04T18:59:12.438Z,8.50
2022-11-04T19:01:40.613Z,8.50
2022-11-04T19:04:08.638Z,8.50
2022-11-04T19:06:41.846Z,8.50
2022-11-04T19:09:44.954Z,8.50
2022-11-04T19:12:17.524Z,8.50
2022-11-04T19:14:45.389Z,8.50
2022-11-04T19:17:12.915Z,8.50
2022-11-04T19:19:41.784Z,8.50
2022-11-04T19:22:10.103Z,8.50
2022-11-04T19:24:37.949Z,8.50
2022-11-04T19:27:05.899Z,8.50
2022-11-04T19:29:33.807Z,8.50
2022-11-04T19:32:01.278Z,8.50
2022-11-04T19:34:28.606Z,8.50
2022-11-04T19:36:56.634Z,8.40
2022-11-04T19:39:24.238Z,8.40
2022-11-04T19:42:10.247Z,8.40
2022-11-04T19:44:37.792Z,8.40
2022-11-04T19:47:05.388Z,8.30
2022-11-04T19:49:32.988Z,8.30
2022-11-04T19:52:00.864Z,8.30
2022-11-04T19:54:28.766Z,8.30
2022-11-04T19:56:57.018Z,8.30
2022-11-04T19:59:24.629Z,8.20
2022-11-04T20:01:52.122Z,8.20
2022-11-04T20:04:19.838Z,8.20
2022-11-04T20:06:47.877Z,8.20
2022-11-04T20:09:15.576Z,8.10
2022-11-04T20:12:01.430Z,8.10
2022-11-04T20:14:29.734Z,8.10
2022-11-04T20:16:57.788Z,8.10
2022-11-04T20:19:25.383Z,8.10
2022-11-04T20:21:52.625Z,8.10
2022-11-04T20:24:19.860Z,8.10
2022-11-04T20:26:47.701Z,8.10
2022-11-04T20:29:18.106Z,8.00
2022-11-04T20:31:45.990Z,8.00
2022-11-04T20:34:14.689Z,8.00
2022-11-04T20:36:42.212Z,8.00
2022-11-04T20:39:20.389Z,8.00
2022-11-04T20:41:47.777Z,8.00
2022-11-04T20:44:16.400Z,8.00
2022-11-04T20:46:44.910Z,8.00
2022-11-04T20:49:13.284Z,8.00
2022-11-04T20:51:48.806Z,8.00
2022-11-04T20:54:21.285Z,8.00
2022-11-04T20:56:49.092Z,8.00
2022-11-04T20:59:18.578Z,8.00
2022-11-04T21:02:12.874Z,8.00
2022-11-04T21:04:40.688Z,8.00
2022-11-04T21:07:08.362Z,8.00
2022-11-04T21:09:36.442Z,8.00
2022-11-04T21:12:07.606Z,8.00
2022-11-04T21:14:35.794Z,7.90
2022-11-04T21:17:06.574Z,7.90
2022-11-04T21:19:34.650Z,7.90
2022-11-04T21:22:02.065Z,7.90
2022-11-04T21:24:29.484Z,7.90
2022-11-04T21:26:57.291Z,7.90
2022-11-04T21:29:24.975Z,7.80
2022-11-04T21:31:52.498Z,7.80
2022-11-04T21:34:20.619Z,7.80
2022-11-04T21:36:51.578Z,7.70
2022-11-04T21:39:19.461Z,7.70
2022-11-04T21:41:47.028Z,7.70
2022-11-04T21:44:14.975Z,7.70
2022-11-04T21:46:42.926Z,7.70
2022-11-04T21:49:12.618Z,7.70
2022-11-04T21:51:40.647Z,7.70
2022-11-04T21:54:08.723Z,7.70
2022-11-04T21:56:36.825Z,7.70
2022-11-04T21:59:05.013Z,7.70
2022-11-04T22:01:33.384Z,7.70
2022-11-04T22:04:02.273Z,7.70
2022-11-04T22:06:34.694Z,7.60
2022-11-04T22:09:08.406Z,7.60
2022-11-04T22:11:39.196Z,7.50
2022-11-04T22:14:08.904Z,7.50
2022-11-04T22:16:39.137Z,7.40
2022-11-04T22:19:08.743Z,7.40
2022-11-04T22:21:40.167Z,7.40
2022-11-04T22:24:11.092Z,7.40
2022-11-04T22:26:39.894Z,7.30
2022-11-04T22:29:07.185Z,7.30
2022-11-04T22:31:37.625Z,7.30
2022-11-04T22:34:05.853Z,7.20
2022-11-04T22:36:34.201Z,7.20
2022-11-04T22:39:01.609Z,7.20
2022-11-04T22:41:31.777Z,7.20
2022-11-04T22:43:59.467Z,7.20
2022-11-04T22:46:29.212Z,7.20
2022-11-04T22:48:56.608Z,7.20
2022-11-04T22:51:23.858Z,7.20
2022-11-04T22:53:58.070Z,7.20
2022-11-04T22:56:26.651Z,7.10
2022-11-04T22:58:54.652Z,7.10
2022-11-04T23:01:22.241Z,7.10
2022-11-04T23:03:52.138Z,7.10
2022-11-04T23:06:19.609Z,7.10
2022-11-04T23:08:46.902Z,7.10
2022-11-04T23:11:37.000Z,7.10
2022-11-04T23:14:23.544Z,7.10
2022-11-04T23:17:10.818Z,7.10
2022-11-04T23:19:39.226Z,7.10
2022-11-04T23:22:26.167Z,7.10
2022-11-04T23:25:06.964Z,7.00
2022-11-04T23:27:54.726Z,7.00
2022-11-04T23:30:23.047Z,7.00
2022-11-04T23:32:56.176Z,7.00
2022-11-04T23:35:46.976Z,7.00
2022-11-04T23:38:14.495Z,7.00
2022-11-04T23:40:42.623Z,7.00
2022-11-04T23:43:10.133Z,6.90
2022-11-04T23:45:56.025Z,6.90
2022-11-04T23:48:42.527Z,6.90
2022-11-04T23:51:30.155Z,6.90
2022-11-04T23:54:15.852Z,6.90
2022-11-04T23:57:02.060Z,6.90
2022-11-04T23:59:47.786Z,6.80
